createdAt,value
2018-07-02T00:00:34.393Z,42.43
2018-07-02T00:03:03.605Z,43.24
2018-07-02T00:05:43.957Z,43.49
2018-07-02T00:08:13.153Z,44.12
2018-07-02T00:10:45.345Z,43.26
2018-07-02T00:13:14.544Z,44.56
2018-07-02T00:15:43.760Z,43.38
2018-07-02T00:18:12.951Z,43.96
2018-07-02T00:20:42.166Z,44.05
2018-07-02T00:23:11.360Z,43.92
2018-07-02T00:25:40.566Z,42.92
2018-07-02T00:28:09.749Z,43.73
2018-07-02T00:30:38.937Z,44.38
2018-07-02T00:33:08.125Z,44.87
2018-07-02T00:35:37.332Z,44.51
2018-07-02T00:38:06.544Z,46.38
2018-07-02T00:40:35.733Z,44.01
2018-07-02T00:43:04.920Z,45.78
2018-07-02T00:45:34.105Z,45.20
2018-07-02T00:48:03.322Z,44.51
2018-07-02T00:50:32.520Z,45.22
2018-07-02T00:53:01.712Z,46.02
2018-07-02T00:55:30.902Z,45.95
2018-07-02T00:58:00.082Z,46.05
2018-07-02T01:00:29.262Z,45.59
2018-07-02T01:02:58.457Z,46.13
2018-07-02T01:05:27.625Z,46.16
2018-07-02T01:07:56.884Z,48.34
2018-07-02T01:10:26.071Z,45.81
2018-07-02T01:12:55.251Z,47.01
2018-07-02T01:15:24.428Z,46.03
2018-07-02T01:17:53.603Z,46.44
2018-07-02T01:20:22.772Z,46.16
2018-07-02T01:22:51.961Z,46.51
2018-07-02T01:25:21.148Z,46.58
2018-07-02T01:27:50.343Z,48.16
2018-07-02T01:30:19.556Z,47.51
2018-07-02T01:32:48.710Z,47.36
2018-07-02T01:35:17.884Z,47.08
2018-07-02T01:37:47.057Z,46.62
2018-07-02T01:40:16.236Z,47.53
2018-07-02T01:42:45.480Z,46.94
2018-07-02T01:45:14.701Z,46.94
2018-07-02T01:47:43.929Z,47.46
2018-07-02T01:50:13.131Z,47.10
2018-07-02T01:52:42.308Z,47.48
2018-07-02T01:55:11.530Z,48.22
2018-07-02T01:57:40.790Z,49.38
2018-07-02T02:00:09.973Z,49.36
2018-07-02T02:02:39.158Z,47.70
2018-07-02T02:05:08.365Z,46.99
2018-07-02T02:07:37.576Z,46.86
2018-07-02T02:10:06.826Z,47.84
2018-07-02T02:12:36.030Z,47.53
2018-07-02T02:15:05.893Z,48.78
2018-07-02T02:17:35.280Z,48.06
2018-07-02T02:20:04.850Z,48.85
2018-07-02T02:22:34.068Z,48.70
2018-07-02T02:25:03.304Z,50.59
2018-07-02T02:27:32.470Z,48.43
2018-07-02T02:30:02.085Z,48.35
2018-07-02T02:32:31.380Z,49.65
2018-07-02T02:35:00.604Z,48.47
2018-07-02T02:37:29.778Z,49.20
2018-07-02T02:39:58.954Z,49.88
2018-07-02T02:42:28.143Z,49.30
2018-07-02T02:44:57.368Z,50.56
2018-07-02T02:47:26.542Z,49.59
2018-07-02T02:49:55.716Z,49.95
2018-07-02T02:52:24.892Z,48.90
2018-07-02T02:54:54.074Z,48.58
2018-07-02T02:57:23.246Z,49.08
2018-07-02T02:59:52.431Z,49.64
2018-07-02T03:02:22.631Z,49.31
2018-07-02T03:04:51.807Z,50.15
2018-07-02T03:07:21.037Z,49.21
2018-07-02T03:09:50.346Z,50.67
2018-07-02T03:12:19.530Z,49.21
2018-07-02T03:14:48.753Z,49.48
2018-07-02T03:17:17.948Z,50.95
2018-07-02T03:19:47.135Z,50.05
2018-07-02T03:22:16.330Z,49.89
2018-07-02T03:24:45.565Z,49.61
2018-07-02T03:27:14.808Z,49.53
2018-07-02T03:29:44.056Z,50.72
2018-07-02T03:32:13.292Z,50.46
2018-07-02T03:34:42.492Z,50.11
2018-07-02T03:37:11.669Z,50.71
2018-07-02T03:39:40.899Z,51.86
2018-07-02T03:42:10.180Z,49.70
2018-07-02T03:44:39.371Z,49.73
2018-07-02T03:47:08.646Z,49.93
2018-07-02T03:49:37.845Z,50.23
2018-07-02T03:52:07.094Z,50.19
2018-07-02T03:54:36.217Z,51.56
2018-07-02T03:57:05.548Z,51.11
2018-07-02T03:59:34.720Z,49.99
2018-07-02T04:02:03.940Z,49.77
2018-07-02T04:04:33.170Z,50.31
2018-07-02T04:07:02.368Z,50.06
2018-07-02T04:09:31.602Z,50.85
2018-07-02T04:12:00.812Z,50.79
2018-07-02T04:14:30.004Z,50.63
2018-07-02T04:16:59.253Z,51.14
2018-07-02T04:19:28.464Z,50.13
2018-07-02T04:21:57.692Z,49.82
2018-07-02T04:24:26.877Z,49.60
2018-07-02T04:26:56.095Z,49.95
2018-07-02T04:29:25.281Z,50.15
2018-07-02T04:31:54.517Z,50.13
2018-07-02T04:34:23.688Z,51.15
2018-07-02T04:36:52.875Z,50.79
2018-07-02T04:39:22.045Z,50.71
2018-07-02T04:41:51.268Z,50.06
2018-07-02T04:44:20.467Z,50.97
2018-07-02T04:46:49.729Z,49.64
2018-07-02T04:49:18.907Z,49.86
2018-07-02T04:51:48.142Z,49.27
2018-07-02T04:54:17.331Z,49.00
2018-07-02T04:56:46.578Z,48.88
2018-07-02T04:59:15.763Z,48.76
2018-07-02T05:01:44.976Z,48.17
2018-07-02T05:04:14.196Z,47.47
2018-07-02T05:06:43.386Z,47.42
2018-07-02T05:09:12.754Z,47.43
2018-07-02T05:11:41.946Z,46.23
2018-07-02T05:14:11.201Z,46.62
2018-07-02T05:16:40.441Z,45.52
2018-07-02T05:19:09.679Z,45.67
2018-07-02T05:21:38.841Z,40.84
2018-07-02T05:24:08.041Z,37.79
2018-07-02T05:26:37.246Z,34.40
2018-07-02T05:29:06.494Z,32.23
2018-07-02T05:34:35.123Z,28.86
2018-07-02T05:37:04.332Z,27.67
2018-07-02T05:39:33.504Z,26.15
2018-07-02T05:42:02.675Z,26.39
2018-07-02T05:44:31.832Z,23.92
2018-07-02T05:47:01.023Z,23.73
2018-07-02T05:49:30.498Z,24.28
2018-07-02T05:52:00.071Z,24.73
2018-07-02T05:54:29.244Z,23.42
2018-07-02T05:56:58.855Z,22.75
2018-07-02T05:59:28.137Z,21.31
2018-07-02T06:01:57.308Z,21.70
2018-07-02T06:04:26.589Z,22.07
2018-07-02T06:06:55.780Z,22.39
2018-07-02T06:09:24.933Z,22.26
2018-07-02T06:11:54.123Z,20.91
2018-07-02T06:14:23.293Z,21.75
2018-07-02T06:16:52.540Z,23.47
2018-07-02T06:19:23.049Z,22.02
2018-07-02T06:21:52.382Z,21.59
2018-07-02T06:24:21.592Z,21.64
2018-07-02T06:26:50.852Z,21.40
2018-07-02T06:29:20.096Z,20.40
2018-07-02T06:31:49.261Z,19.12
2018-07-02T06:34:18.479Z,20.86
2018-07-02T06:36:47.658Z,20.27
2018-07-02T06:39:16.904Z,20.04
2018-07-02T06:41:46.105Z,20.95
2018-07-02T06:44:15.332Z,19.30
2018-07-02T06:46:44.508Z,19.63
2018-07-02T06:49:13.697Z,20.10
2018-07-02T06:51:42.905Z,18.84
2018-07-02T06:54:12.064Z,20.68
2018-07-02T06:56:41.247Z,19.82
2018-07-02T06:59:10.432Z,19.33
2018-07-02T07:01:39.686Z,19.05
2018-07-02T07:04:08.861Z,18.65
2018-07-02T07:06:38.053Z,18.91
2018-07-02T07:09:07.765Z,19.03
2018-07-02T07:11:37.015Z,19.18
2018-07-02T07:14:06.404Z,17.02
2018-07-02T07:16:35.596Z,18.83
2018-07-02T07:19:04.782Z,17.33
2018-07-02T07:21:33.982Z,18.00
2018-07-02T07:24:03.197Z,17.39
2018-07-02T07:26:32.520Z,16.03
2018-07-02T07:29:01.742Z,15.45
2018-07-02T07:31:30.925Z,17.22
2018-07-02T07:34:00.240Z,17.37
2018-07-02T07:36:29.443Z,16.59
2018-07-02T07:38:58.716Z,17.21
2018-07-02T07:41:27.943Z,16.82
2018-07-02T07:43:57.175Z,16.21
2018-07-02T07:46:26.349Z,16.72
2018-07-02T07:48:55.537Z,17.08
2018-07-02T07:51:24.762Z,17.35
2018-07-02T07:53:54.028Z,17.29
2018-07-02T07:56:23.384Z,17.00
2018-07-02T07:58:52.668Z,18.45
2018-07-02T08:01:21.989Z,18.00
2018-07-02T08:03:51.222Z,17.69
2018-07-02T08:06:20.391Z,17.37
2018-07-02T08:08:49.560Z,16.06
2018-07-02T08:11:18.745Z,17.17
2018-07-02T08:13:47.933Z,16.30
2018-07-02T08:16:17.150Z,18.76
2018-07-02T08:18:46.462Z,16.72
2018-07-02T08:21:15.687Z,16.45
2018-07-02T08:23:44.892Z,16.99
2018-07-02T08:26:14.157Z,16.95
2018-07-02T08:28:43.406Z,16.78
2018-07-02T08:31:12.643Z,18.52
2018-07-02T08:33:41.865Z,17.29
2018-07-02T08:36:11.052Z,17.58
2018-07-02T08:38:40.295Z,16.22
2018-07-02T08:41:09.510Z,17.57
2018-07-02T08:43:38.754Z,16.23
2018-07-02T08:46:08.006Z,15.82
2018-07-02T08:48:37.192Z,14.85
2018-07-02T08:51:06.617Z,15.31
2018-07-02T08:53:35.806Z,15.04
2018-07-02T08:56:05.085Z,15.65
2018-07-02T08:58:34.394Z,17.37
2018-07-02T09:01:03.727Z,16.73
2018-07-02T09:03:32.982Z,14.86
2018-07-02T09:06:02.406Z,15.27
2018-07-02T09:08:31.588Z,15.15
2018-07-02T09:11:00.856Z,14.54
2018-07-02T09:13:30.206Z,14.69
2018-07-02T09:15:59.493Z,14.25
2018-07-02T09:18:28.776Z,15.89
2018-07-02T09:20:58.199Z,16.05
2018-07-02T09:23:27.711Z,14.55
2018-07-02T09:25:57.282Z,15.41
2018-07-02T09:28:26.794Z,16.73
2018-07-02T09:30:56.334Z,15.48
2018-07-02T09:33:25.900Z,14.97
2018-07-02T09:35:55.372Z,16.12
2018-07-02T09:38:24.894Z,16.02
2018-07-02T09:40:54.517Z,14.11
2018-07-02T09:43:23.980Z,14.64
2018-07-02T09:45:53.471Z,14.40
2018-07-02T09:48:23.559Z,15.10
2018-07-02T09:50:53.168Z,14.43
2018-07-02T09:53:22.677Z,15.22
2018-07-02T09:55:52.149Z,15.68
2018-07-02T09:58:21.720Z,16.06
2018-07-02T10:00:51.276Z,15.11
2018-07-02T10:03:20.770Z,16.03
2018-07-02T10:05:50.207Z,15.32
2018-07-02T10:08:19.405Z,14.64
2018-07-02T10:10:48.855Z,15.58
2018-07-02T10:13:18.084Z,15.06
2018-07-02T10:15:47.279Z,15.25
2018-07-02T10:18:16.505Z,15.45
2018-07-02T10:20:46.031Z,14.17
2018-07-02T10:23:15.331Z,14.23
2018-07-02T10:25:44.532Z,14.78
2018-07-02T10:28:13.752Z,14.10
2018-07-02T10:30:43.011Z,13.93
2018-07-02T10:33:12.282Z,14.17
2018-07-02T10:35:41.488Z,14.69
2018-07-02T10:38:10.760Z,14.21
2018-07-02T10:40:40.076Z,14.63
2018-07-02T10:43:09.260Z,14.71
2018-07-02T10:45:38.589Z,14.07
2018-07-02T10:48:07.779Z,14.21
2018-07-02T10:50:36.997Z,14.81
2018-07-02T10:53:07.169Z,14.12
2018-07-02T10:55:36.382Z,13.58
2018-07-02T10:58:05.576Z,13.92
2018-07-02T11:00:34.749Z,14.75
2018-07-02T11:03:03.933Z,15.06
2018-07-02T11:05:33.156Z,15.16
2018-07-02T11:08:02.629Z,13.85
2018-07-02T11:10:31.781Z,15.24
2018-07-02T11:13:05.242Z,14.52
2018-07-02T11:15:34.457Z,15.78
2018-07-02T11:18:03.742Z,15.93
2018-07-02T11:20:32.974Z,16.51
2018-07-02T11:23:02.140Z,17.17
2018-07-02T11:25:31.389Z,17.16
2018-07-02T11:28:00.627Z,16.93
2018-07-02T11:30:29.852Z,18.77
2018-07-02T11:32:59.057Z,18.05
2018-07-02T11:35:34.668Z,18.37
2018-07-02T11:38:03.872Z,19.04
2018-07-02T11:40:33.105Z,18.68
2018-07-02T11:43:02.391Z,19.11
2018-07-02T11:45:31.640Z,19.76
2018-07-02T11:48:00.864Z,19.24
2018-07-02T11:50:30.287Z,18.87
2018-07-02T11:53:00.348Z,18.77
2018-07-02T11:55:29.677Z,18.39
2018-07-02T11:57:58.990Z,19.82
2018-07-02T12:00:28.347Z,19.93
2018-07-02T12:02:57.590Z,19.70
2018-07-02T12:05:27.317Z,19.85
2018-07-02T12:07:58.025Z,19.41
2018-07-02T12:10:27.738Z,19.55
2018-07-02T12:12:57.345Z,19.40
2018-07-02T12:15:26.988Z,19.40
2018-07-02T12:17:56.234Z,19.91
2018-07-02T12:20:25.765Z,20.14
2018-07-02T12:22:55.095Z,19.18
2018-07-02T12:25:24.280Z,19.62
2018-07-02T12:27:53.555Z,19.20
2018-07-02T12:30:22.751Z,18.18
2018-07-02T12:32:52.075Z,17.69
2018-07-02T12:35:21.278Z,19.35
2018-07-02T12:37:50.804Z,18.74
2018-07-02T12:40:20.077Z,18.89
2018-07-02T12:42:49.320Z,20.50
2018-07-02T12:45:22.430Z,20.57
2018-07-02T12:47:52.672Z,20.84
2018-07-02T12:50:21.859Z,19.72
2018-07-02T12:52:51.137Z,19.96
2018-07-02T12:55:20.402Z,18.86
2018-07-02T12:57:49.666Z,19.48
2018-07-02T13:00:19.090Z,20.28
2018-07-02T13:02:48.455Z,20.47
2018-07-02T13:05:18.004Z,19.88
2018-07-02T13:07:47.354Z,19.44
2018-07-02T13:10:16.761Z,18.79
2018-07-02T13:12:46.316Z,19.51
2018-07-02T13:15:15.594Z,19.02
2018-07-02T13:17:45.027Z,19.68
2018-07-02T13:20:14.268Z,19.25
2018-07-02T13:22:43.900Z,20.10
2018-07-02T13:25:13.158Z,18.84
2018-07-02T13:27:42.375Z,18.47
2018-07-02T13:30:11.687Z,19.93
2018-07-02T13:32:41.223Z,19.82
2018-07-02T13:35:10.439Z,19.54
2018-07-02T13:37:39.774Z,19.12
2018-07-02T13:40:09.323Z,18.75
2018-07-02T13:42:40.926Z,19.77
2018-07-02T13:45:10.234Z,19.78
2018-07-02T13:47:39.452Z,19.45
2018-07-02T13:50:09.673Z,19.97
2018-07-02T13:52:38.864Z,21.08
2018-07-02T13:55:08.405Z,20.99
2018-07-02T13:57:37.665Z,20.48
2018-07-02T14:00:07.189Z,21.39
2018-07-02T14:02:36.398Z,20.01
2018-07-02T14:05:05.769Z,20.36
2018-07-02T14:07:34.985Z,20.92
2018-07-02T14:10:04.450Z,20.91
2018-07-02T14:12:33.730Z,19.59
2018-07-02T14:15:02.970Z,20.35
2018-07-02T14:17:32.177Z,20.66
2018-07-02T14:20:01.405Z,19.93
2018-07-02T14:22:30.576Z,19.88
2018-07-02T14:24:59.803Z,19.63
2018-07-02T14:27:29.002Z,20.34
2018-07-02T14:29:58.195Z,20.81
2018-07-02T14:32:27.374Z,21.23
2018-07-02T14:34:56.574Z,20.51
2018-07-02T14:37:25.756Z,19.69
2018-07-02T14:39:54.936Z,20.20
2018-07-02T14:42:24.134Z,19.33
2018-07-02T14:44:53.510Z,19.67
2018-07-02T14:47:22.637Z,20.34
2018-07-02T14:49:51.800Z,20.85
2018-07-02T14:52:21.009Z,21.07
2018-07-02T14:54:50.167Z,21.52
2018-07-02T14:57:19.361Z,21.54
2018-07-02T14:59:48.524Z,21.27
2018-07-02T15:02:17.748Z,20.74
2018-07-02T15:04:46.950Z,20.71
2018-07-02T15:07:16.216Z,20.48
2018-07-02T15:09:45.415Z,21.15
2018-07-02T15:12:14.664Z,20.92
2018-07-02T15:14:43.859Z,21.49
2018-07-02T15:17:13.107Z,22.84
2018-07-02T15:19:42.299Z,21.76
2018-07-02T15:22:11.509Z,20.61
2018-07-02T15:24:40.754Z,21.17
2018-07-02T15:27:10.013Z,21.44
2018-07-02T15:29:39.191Z,20.29
2018-07-02T15:32:08.430Z,21.26
2018-07-02T15:34:37.625Z,20.83
2018-07-02T15:39:42.307Z,20.96
2018-07-02T15:42:11.604Z,22.80
2018-07-02T15:44:40.825Z,21.18
2018-07-02T15:47:10.046Z,21.74
2018-07-02T15:49:39.293Z,22.19
2018-07-02T15:52:08.695Z,21.19
2018-07-02T15:54:37.939Z,20.71
2018-07-02T15:57:07.144Z,20.36
2018-07-02T15:59:36.362Z,22.33
2018-07-02T16:02:05.535Z,20.38
2018-07-02T16:04:34.736Z,20.72
2018-07-02T16:07:03.941Z,20.24
2018-07-02T16:09:33.193Z,21.43
2018-07-02T16:12:02.380Z,21.65
2018-07-02T16:14:31.569Z,21.60
2018-07-02T16:17:00.757Z,21.11
2018-07-02T16:19:29.955Z,21.80
2018-07-02T16:21:59.180Z,21.12
2018-07-02T16:24:28.389Z,21.54
2018-07-02T16:26:57.569Z,21.77
2018-07-02T16:29:26.956Z,21.30
2018-07-02T16:31:56.146Z,20.70
2018-07-02T16:34:25.382Z,20.66
2018-07-02T16:36:54.613Z,22.03
2018-07-02T16:39:23.963Z,21.90
2018-07-02T16:41:53.159Z,21.10
2018-07-02T16:44:22.727Z,21.59
2018-07-02T16:46:51.904Z,21.54
2018-07-02T16:49:21.124Z,21.42
2018-07-02T16:51:50.360Z,21.06
2018-07-02T16:54:19.606Z,21.39
2018-07-02T16:56:48.796Z,22.23
2018-07-02T16:59:18.009Z,21.53
2018-07-02T17:01:47.241Z,21.56
2018-07-02T17:04:16.522Z,22.34
2018-07-02T17:06:45.708Z,22.32
2018-07-02T17:09:14.903Z,21.11
2018-07-02T17:11:44.091Z,21.13
2018-07-02T17:14:13.303Z,20.74
2018-07-02T17:16:42.472Z,20.53
2018-07-02T17:19:11.675Z,21.04
2018-07-02T17:21:40.903Z,21.62
2018-07-02T17:24:10.118Z,22.62
2018-07-02T17:26:39.432Z,21.51
2018-07-02T17:29:09.359Z,22.53
2018-07-02T17:31:38.593Z,22.16
2018-07-02T17:34:08.141Z,21.63
2018-07-02T17:36:37.320Z,21.69
2018-07-02T17:39:09.326Z,22.32
2018-07-02T17:41:38.728Z,21.39
2018-07-02T17:44:07.927Z,21.22
2018-07-02T17:46:37.121Z,22.11
2018-07-02T17:49:06.437Z,22.30
2018-07-02T17:51:35.880Z,21.72
2018-07-02T17:54:05.225Z,22.36
2018-07-02T17:56:34.404Z,23.05
2018-07-02T17:59:03.627Z,21.45
2018-07-02T18:01:32.848Z,21.84
2018-07-02T18:04:02.009Z,23.85
2018-07-02T18:06:31.174Z,23.72
2018-07-02T18:09:00.330Z,23.14
2018-07-02T18:11:29.502Z,23.20
2018-07-02T18:13:58.658Z,22.39
2018-07-02T18:16:27.892Z,22.38
2018-07-02T18:18:57.057Z,22.75
2018-07-02T18:21:26.307Z,23.23
2018-07-02T18:23:55.492Z,24.41
2018-07-02T18:26:24.812Z,25.33
2018-07-02T18:28:54.193Z,25.45
2018-07-02T18:31:23.411Z,24.26
2018-07-02T18:33:52.604Z,25.29
2018-07-02T18:36:21.844Z,25.18
2018-07-02T18:38:51.091Z,25.88
2018-07-02T18:41:20.284Z,26.60
2018-07-02T18:43:49.443Z,27.22
2018-07-02T18:46:18.669Z,26.93
2018-07-02T18:48:47.878Z,26.42
2018-07-02T18:51:17.130Z,27.12
2018-07-02T18:53:46.279Z,27.01
2018-07-02T18:56:15.530Z,27.89
2018-07-02T18:58:44.681Z,27.86
2018-07-02T19:01:13.901Z,28.55
2018-07-02T19:03:43.060Z,27.44
2018-07-02T19:06:12.484Z,27.81
2018-07-02T19:08:41.636Z,27.61
2018-07-02T19:11:10.871Z,29.33
2018-07-02T19:13:40.025Z,28.52
2018-07-02T19:16:09.320Z,28.79
2018-07-02T19:18:38.501Z,29.78
2018-07-02T19:21:07.721Z,27.65
2018-07-02T19:23:36.915Z,29.02
2018-07-02T19:26:06.176Z,29.28
2018-07-02T19:28:35.410Z,29.01
2018-07-02T19:31:04.541Z,31.01
2018-07-02T19:33:33.720Z,30.67
2018-07-02T19:36:02.959Z,30.68
2018-07-02T19:38:32.151Z,31.15
2018-07-02T19:41:01.350Z,31.40
2018-07-02T19:43:30.489Z,31.41
2018-07-02T19:45:59.672Z,31.80
2018-07-02T19:48:28.848Z,32.31
2018-07-02T19:50:58.041Z,32.91
2018-07-02T19:53:27.188Z,32.45
2018-07-02T19:55:56.435Z,32.37
2018-07-02T19:58:25.684Z,33.40
2018-07-02T20:00:54.917Z,33.80
2018-07-02T20:03:24.104Z,33.96
2018-07-02T20:05:53.475Z,35.55
2018-07-02T20:08:22.680Z,35.39
2018-07-02T20:10:51.894Z,36.92
2018-07-02T20:13:21.140Z,36.94
2018-07-02T20:15:50.350Z,37.69
2018-07-02T20:18:19.562Z,37.33
2018-07-02T20:20:48.790Z,37.54
2018-07-02T20:23:17.984Z,38.25
2018-07-02T20:25:47.142Z,37.68
2018-07-02T20:28:16.337Z,37.98
2018-07-02T20:30:45.539Z,38.63
2018-07-02T20:33:14.728Z,38.85
2018-07-02T20:35:43.977Z,38.96
2018-07-02T20:38:13.163Z,39.56
2018-07-02T20:40:42.548Z,40.10
2018-07-02T20:43:11.824Z,42.23
2018-07-02T20:45:41.299Z,40.10
2018-07-02T20:48:11.622Z,39.66
2018-07-02T20:50:40.809Z,40.44
2018-07-02T20:53:10.130Z,39.56
2018-07-02T20:55:39.285Z,40.89
2018-07-02T20:58:08.873Z,40.63
2018-07-02T21:00:38.275Z,39.70
2018-07-02T21:03:07.472Z,40.21
2018-07-02T21:05:36.652Z,40.66
2018-07-02T21:08:05.992Z,41.63
2018-07-02T21:10:35.193Z,41.15
2018-07-02T21:13:04.520Z,41.76
2018-07-02T21:15:33.738Z,40.34
2018-07-02T21:18:02.949Z,41.48
2018-07-02T21:20:32.256Z,41.93
2018-07-02T21:23:01.458Z,42.96
2018-07-02T21:25:30.795Z,41.36
2018-07-02T21:28:00.032Z,41.26
2018-07-02T21:31:31.879Z,40.76
2018-07-02T21:34:01.143Z,40.42
2018-07-02T21:36:31.504Z,40.61
2018-07-02T21:39:00.732Z,42.22
2018-07-02T21:41:30.329Z,42.47
2018-07-02T21:43:59.545Z,42.68
2018-07-02T21:46:35.395Z,42.68
2018-07-02T21:49:04.714Z,43.05
2018-07-02T21:51:35.970Z,43.40
2018-07-02T21:54:05.248Z,43.52
2018-07-02T21:56:34.431Z,42.09
2018-07-02T21:59:03.631Z,43.47
2018-07-02T22:01:32.875Z,43.76
2018-07-02T22:04:02.188Z,42.27
2018-07-02T22:06:31.672Z,42.79
2018-07-02T22:09:00.848Z,43.29
2018-07-02T22:11:30.480Z,43.81
2018-07-02T22:13:59.650Z,45.21
2018-07-02T22:16:29.156Z,43.79
2018-07-02T22:21:33.576Z,45.38
2018-07-02T22:24:03.816Z,45.12
2018-07-02T22:26:34.888Z,44.34
2018-07-02T22:29:04.124Z,43.79
2018-07-02T22:31:33.288Z,44.50
2018-07-02T22:34:02.727Z,44.41
2018-07-02T22:36:31.946Z,43.23
2018-07-02T22:39:03.037Z,44.27
2018-07-02T22:41:32.207Z,45.50
2018-07-02T22:44:01.376Z,45.82
2018-07-02T22:46:30.588Z,45.05
2018-07-02T22:48:59.816Z,44.82
2018-07-02T22:51:29.011Z,45.48
2018-07-02T22:53:58.248Z,46.12
2018-07-02T22:56:34.012Z,45.85
2018-07-02T22:59:03.213Z,46.40
2018-07-02T23:01:32.433Z,46.10
2018-07-02T23:04:01.632Z,46.11
2018-07-02T23:06:30.890Z,44.99
2018-07-02T23:09:00.045Z,45.33
2018-07-02T23:11:29.224Z,45.57
2018-07-02T23:13:58.412Z,46.09
2018-07-02T23:16:27.583Z,46.31
2018-07-02T23:18:56.721Z,46.96
2018-07-02T23:21:25.943Z,46.24
2018-07-02T23:23:55.116Z,46.74
2018-07-02T23:26:24.277Z,46.57
2018-07-02T23:28:53.449Z,46.95
2018-07-02T23:31:22.615Z,46.69
2018-07-02T23:33:51.814Z,46.85
2018-07-02T23:36:20.982Z,46.45
2018-07-02T23:38:50.180Z,46.58
2018-07-02T23:41:19.392Z,46.67
2018-07-02T23:43:48.593Z,47.62
2018-07-02T23:46:17.748Z,46.63
2018-07-02T23:48:46.981Z,46.07
2018-07-02T23:51:16.147Z,46.37
2018-07-02T23:53:45.364Z,46.64
2018-07-02T23:56:14.632Z,46.81
2018-07-02T23:58:43.845Z,47.75
